Time;durP1;ratioP1;P1;durP2;ratioP2;P2;SDS_P1;SDS_P2;PMS_P1;PMS_P2;Temp;Humidity;BMP_temperature;BMP_pressure;BME280_temperature;BME280_humidity;BME280_pressure;Samples;Min_cycle;Max_cycle;Signal;HPM_P1;HPM_P2
2024/02/28 00:02:24;;;;;;;21.43;18.80;;;7.80;74.50;;;;;;5141179;27;20261;-47
2024/02/28 00:04:50;;;;;;;26.17;20.27;;;7.70;94.20;;;;;;5140249;27;20179;-47
2024/02/28 00:07:17;;;;;;;25.80;21.70;;;7.70;99.90;;;;;;5139259;27;20288;-45
2024/02/28 00:09:43;;;;;;;21.77;19.07;;;7.60;99.90;;;;;;5139628;27;20250;-47
2024/02/28 00:12:09;;;;;;;25.00;19.80;;;7.60;99.90;;;;;;5140011;27;20408;-44
2024/02/28 00:14:34;;;;;;;25.50;19.20;;;7.50;99.90;;;;;;5140075;27;20231;-47
2024/02/28 00:17:00;;;;;;;21.40;19.10;;;7.50;99.90;;;;;;5122123;27;20448;-44
2024/02/28 00:19:25;;;;;;;24.60;20.67;;;7.40;99.90;;;;;;5140998;27;20175;-44
2024/02/28 00:21:51;;;;;;;24.47;20.23;;;7.40;99.90;;;;;;5140430;27;20534;-45
2024/02/28 00:24:17;;;;;;;26.83;21.00;;;7.30;99.90;;;;;;5121546;27;20167;-46
2024/02/28 00:26:43;;;;;;;24.37;20.63;;;7.30;99.90;;;;;;5121536;27;20529;-49
2024/02/28 00:29:10;;;;;;;24.90;21.33;;;7.20;99.90;;;;;;5140934;27;20175;-46
2024/02/28 00:31:35;;;;;;;24.60;19.93;;;7.30;99.90;;;;;;5123214;27;20447;-46
2024/02/28 00:34:01;;;;;;;25.33;20.27;;;7.30;99.90;;;;;;5141029;27;20472;-45
2024/02/28 00:36:27;;;;;;;24.00;20.77;;;7.30;99.90;;;;;;5104300;27;20440;-48
2024/02/28 00:38:53;;;;;;;27.07;22.00;;;7.30;99.90;;;;;;5120973;27;20416;-51
2024/02/28 00:41:18;;;;;;;24.10;19.37;;;7.30;99.90;;;;;;5121266;27;20179;-47
2024/02/28 00:43:44;;;;;;;24.57;21.60;;;7.30;99.90;;;;;;5120852;27;20202;-47
2024/02/28 00:46:12;;;;;;;23.67;20.20;;;7.20;99.90;;;;;;5138847;27;20212;-45
2024/02/28 00:48:38;;;;;;;26.37;21.37;;;7.20;99.90;;;;;;5137844;27;20179;-46
2024/02/28 00:51:04;;;;;;;25.27;21.03;;;7.10;99.90;;;;;;5138960;27;20474;-45
2024/02/28 00:53:30;;;;;;;27.13;21.53;;;7.10;99.90;;;;;;5121890;27;20468;-46
2024/02/28 00:55:56;;;;;;;22.27;19.53;;;7.10;99.90;;;;;;5140224;27;20523;-45
2024/02/28 00:58:21;;;;;;;28.20;21.70;;;7.00;99.90;;;;;;5124562;27;20521;-45
2024/02/28 01:00:50;;;;;;;23.90;19.70;;;7.00;99.90;;;;;;5123962;27;20178;-47
2024/02/28 01:03:18;;;;;;;25.30;21.33;;;6.90;99.90;;;;;;5141705;27;20452;-46
2024/02/28 01:05:44;;;;;;;25.10;21.30;;;6.90;99.90;;;;;;5114604;27;20413;-49
2024/02/28 01:08:10;;;;;;;25.93;21.13;;;6.90;99.90;;;;;;5123611;27;20428;-48
2024/02/28 01:10:36;;;;;;;27.37;23.60;;;6.80;99.90;;;;;;5140156;27;20424;-49
2024/02/28 01:13:02;;;;;;;26.03;22.10;;;6.80;99.90;;;;;;5139858;27;21058;-47
2024/02/28 01:15:28;;;;;;;27.73;21.00;;;6.80;99.90;;;;;;5139862;27;20882;-46
2024/02/28 01:17:54;;;;;;;26.57;23.07;;;6.70;99.90;;;;;;5121737;27;20424;-45
2024/02/28 01:20:19;;;;;;;30.33;23.60;;;6.70;99.90;;;;;;5140074;27;20179;-48
2024/02/28 01:22:45;;;;;;;30.40;23.57;;;6.70;99.90;;;;;;5120618;27;20537;-48
2024/02/28 01:25:10;;;;;;;31.90;22.90;;;6.70;99.90;;;;;;5138869;27;20211;-47
2024/02/28 01:27:36;;;;;;;29.97;22.80;;;6.70;99.90;;;;;;5121614;27;20219;-48
2024/02/28 01:30:02;;;;;;;29.37;22.60;;;6.60;99.90;;;;;;5120978;27;20223;-47
2024/02/28 01:32:29;;;;;;;29.77;21.57;;;6.60;99.90;;;;;;5136974;27;20203;-47
2024/02/28 01:34:55;;;;;;;27.83;22.80;;;6.60;99.90;;;;;;5137569;27;20282;-55
2024/02/28 01:37:20;;;;;;;26.20;21.20;;;6.60;1.00;;;;;;5138264;27;20900;-46
2024/02/28 01:39:46;;;;;;;26.30;21.70;;;6.60;1.00;;;;;;5119909;27;20181;-50
2024/02/28 01:42:12;;;;;;;27.93;23.07;;;6.60;99.90;;;;;;5137799;27;20210;-47
2024/02/28 01:44:43;;;;;;;23.93;20.43;;;6.60;99.90;;;;;;5120265;27;20203;-45
2024/02/28 01:47:09;;;;;;;28.13;22.53;;;6.60;99.90;;;;;;5119734;27;20183;-45
2024/02/28 01:49:35;;;;;;;34.93;23.73;;;6.70;99.90;;;;;;5138544;27;20887;-46
2024/02/28 01:52:00;;;;;;;27.50;23.20;;;6.70;99.90;;;;;;5138909;27;20238;-47
2024/02/28 01:54:27;;;;;;;29.47;22.87;;;6.70;99.90;;;;;;5138712;27;20259;-49
2024/02/28 01:56:53;;;;;;;33.50;25.20;;;6.70;99.90;;;;;;5138769;27;20198;-45
2024/02/28 01:59:19;;;;;;;31.20;23.63;;;6.70;99.90;;;;;;5137367;27;20413;-48
2024/02/28 02:01:44;;;;;;;29.37;22.07;;;6.70;99.90;;;;;;5103005;27;20433;-50
2024/02/28 02:04:10;;;;;;;29.53;23.20;;;6.70;99.90;;;;;;5120294;27;20557;-45
2024/02/28 02:06:38;;;;;;;29.87;23.47;;;6.70;99.90;;;;;;5138354;27;20174;-45
2024/02/28 02:09:04;;;;;;;30.03;22.70;;;6.70;99.90;;;;;;5119592;27;20476;-44
2024/02/28 02:11:29;;;;;;;28.47;22.80;;;6.70;99.90;;;;;;5120214;27;20550;-48
2024/02/28 02:13:55;;;;;;;27.90;22.27;;;6.70;99.90;;;;;;5138674;27;20248;-45
2024/02/28 02:16:26;;;;;;;30.23;24.40;;;6.70;99.90;;;;;;5138709;27;20186;-46
2024/02/28 02:18:52;;;;;;;30.20;23.80;;;6.70;99.90;;;;;;5137929;27;20183;-45
2024/02/28 02:21:19;;;;;;;29.13;22.83;;;6.70;99.90;;;;;;5138074;27;20440;-44
2024/02/28 02:23:45;;;;;;;29.73;22.00;;;6.70;99.90;;;;;;5119111;27;20444;-45
2024/02/28 02:26:11;;;;;;;26.20;22.50;;;6.70;99.90;;;;;;5138580;27;20877;-47
2024/02/28 02:28:36;;;;;;;26.60;21.57;;;6.70;99.90;;;;;;5138330;27;20190;-46
2024/02/28 02:31:02;;;;;;;27.70;21.70;;;6.70;99.90;;;;;;5138092;27;20184;-47
2024/02/28 02:33:28;;;;;;;29.03;22.40;;;6.70;99.90;;;;;;5138466;27;20198;-45
2024/02/28 02:35:53;;;;;;;27.40;21.50;;;6.70;99.90;;;;;;5137381;27;20204;-45
2024/02/28 02:38:19;;;;;;;26.57;20.83;;;6.70;99.90;;;;;;5138244;27;20179;-45
2024/02/28 02:40:54;;;;;;;28.27;22.07;;;6.70;99.90;;;;;;5138102;27;20425;-46
2024/02/28 02:43:19;;;;;;;29.50;21.53;;;6.70;99.90;;;;;;5137876;27;20189;-44
2024/02/28 02:45:45;;;;;;;28.43;22.20;;;6.70;99.90;;;;;;5138208;27;20745;-45
2024/02/28 02:48:11;;;;;;;25.40;20.90;;;6.70;99.90;;;;;;5120741;27;20198;-45
2024/02/28 02:50:37;;;;;;;26.23;21.17;;;6.70;99.90;;;;;;5136720;27;20206;-45
2024/02/28 02:53:04;;;;;;;26.30;21.80;;;6.70;99.90;;;;;;5119785;27;20478;-47
2024/02/28 02:55:30;;;;;;;26.57;22.77;;;6.70;99.90;;;;;;5138412;27;20413;-45
2024/02/28 02:57:55;;;;;;;26.50;21.27;;;6.70;99.90;;;;;;5136584;27;20447;-45
2024/02/28 03:00:21;;;;;;;26.63;21.93;;;6.70;99.90;;;;;;5137601;27;20393;-44
2024/02/28 03:02:47;;;;;;;30.53;22.73;;;6.70;99.90;;;;;;5137403;27;20175;-46
2024/02/28 03:05:13;;;;;;;27.60;22.37;;;6.70;99.90;;;;;;5138223;27;20417;-44
2024/02/28 03:07:39;;;;;;;25.67;20.57;;;6.70;99.90;;;;;;5138721;27;20174;-44
2024/02/28 03:10:19;;;;;;;27.80;21.40;;;6.80;99.90;;;;;;5130754;27;20187;-47
2024/02/28 03:12:45;;;;;;;26.03;21.53;;;6.80;99.90;;;;;;5121955;27;20235;-44
2024/02/28 03:15:11;;;;;;;26.37;21.17;;;6.80;99.90;;;;;;5116633;28;20823;-46
2024/02/28 03:17:36;;;;;;;27.73;21.20;;;6.80;99.90;;;;;;5116634;28;20205;-46
2024/02/28 03:20:03;;;;;;;25.63;20.87;;;6.80;99.90;;;;;;5099253;28;20176;-46
2024/02/28 03:22:28;;;;;;;28.00;22.30;;;6.80;99.90;;;;;;5117053;28;20191;-45
2024/02/28 03:24:54;;;;;;;25.37;20.70;;;6.80;99.90;;;;;;5117221;28;20425;-45
2024/02/28 03:27:19;;;;;;;27.80;21.70;;;6.80;99.90;;;;;;5116765;28;20179;-45
2024/02/28 03:29:45;;;;;;;29.80;21.57;;;6.80;99.90;;;;;;5081178;28;20285;-46
2024/02/28 03:32:11;;;;;;;25.80;20.83;;;6.80;99.90;;;;;;5116783;28;20434;-47
2024/02/28 03:34:36;;;;;;;28.93;21.73;;;6.80;99.90;;;;;;5116328;28;20257;-46
2024/02/28 03:37:02;;;;;;;27.73;22.77;;;6.80;99.90;;;;;;5115161;28;20180;-45
2024/02/28 03:39:28;;;;;;;27.40;21.47;;;6.90;99.90;;;;;;5116681;28;20519;-47
2024/02/28 03:41:53;;;;;;;25.97;22.00;;;6.90;99.90;;;;;;5116432;28;20219;-49
2024/02/28 03:44:21;;;;;;;26.20;21.23;;;6.90;99.90;;;;;;5116181;28;20246;-47
2024/02/28 03:46:46;;;;;;;26.77;21.90;;;6.90;99.90;;;;;;5115882;28;20550;-45
2024/02/28 03:49:12;;;;;;;25.80;21.43;;;7.00;99.90;;;;;;5115842;28;20468;-46
2024/02/28 03:51:41;;;;;;;27.30;22.37;;;7.00;99.90;;;;;;5116796;28;20274;-48
2024/02/28 03:54:07;;;;;;;32.80;22.30;;;7.00;99.90;;;;;;5116802;28;20208;-44
2024/02/28 03:56:35;;;;;;;26.87;21.40;;;7.00;99.90;;;;;;5115991;28;20413;-46
2024/02/28 03:59:00;;;;;;;27.80;23.53;;;6.90;99.90;;;;;;5115924;28;20508;-48
2024/02/28 04:01:26;;;;;;;28.27;23.50;;;7.00;99.90;;;;;;5115304;28;20516;-44
2024/02/28 04:03:52;;;;;;;26.63;20.90;;;6.90;99.90;;;;;;5096823;28;20429;-44
2024/02/28 04:06:17;;;;;;;32.43;23.53;;;6.90;99.90;;;;;;5116570;28;20191;-47
2024/02/28 04:08:43;;;;;;;27.77;21.50;;;6.90;99.90;;;;;;5114935;28;20183;-44
2024/02/28 04:11:09;;;;;;;32.63;24.57;;;6.80;99.90;;;;;;5113148;28;20435;-51
2024/02/28 04:13:35;;;;;;;30.67;22.83;;;6.90;99.90;;;;;;5114584;28;20228;-44
2024/02/28 04:16:03;;;;;;;28.70;23.10;;;6.80;99.90;;;;;;5115715;28;20421;-46
2024/02/28 04:18:30;;;;;;;28.17;20.70;;;6.70;99.90;;;;;;5097024;28;20308;-48
2024/02/28 04:20:55;;;;;;;30.50;22.80;;;6.70;99.90;;;;;;5114314;28;20627;-45
2024/02/28 04:23:21;;;;;;;31.17;25.67;;;6.60;99.90;;;;;;5114141;28;20783;-44
2024/02/28 04:25:47;;;;;;;31.50;25.73;;;6.60;99.90;;;;;;5116205;28;20172;-48
2024/02/28 04:28:12;;;;;;;41.27;34.10;;;6.60;99.90;;;;;;5114870;28;20230;-47
2024/02/28 04:30:38;;;;;;;33.30;29.30;;;6.60;99.90;;;;;;5116071;28;20222;-44
2024/02/28 04:33:04;;;;;;;34.13;28.40;;;6.60;99.90;;;;;;5115928;28;20199;-46
2024/02/28 04:35:29;;;;;;;30.17;25.07;;;6.50;99.90;;;;;;5116213;28;20210;-48
2024/02/28 04:37:55;;;;;;;27.90;23.57;;;6.60;99.90;;;;;;5116013;28;20179;-48
2024/02/28 04:40:20;;;;;;;30.30;26.10;;;6.50;99.90;;;;;;5116061;28;20184;-46
2024/02/28 04:42:46;;;;;;;31.30;25.13;;;6.50;99.90;;;;;;5119329;28;20179;-48
2024/02/28 04:45:12;;;;;;;26.40;21.53;;;6.50;99.90;;;;;;5100108;28;20505;-44
2024/02/28 04:47:38;;;;;;;30.10;24.60;;;6.40;99.90;;;;;;5119729;28;20180;-46
2024/02/28 04:50:05;;;;;;;30.17;23.20;;;6.40;99.90;;;;;;5118952;28;20695;-46
2024/02/28 04:52:32;;;;;;;30.50;22.13;;;6.40;99.90;;;;;;5118325;28;20437;-49
2024/02/28 04:54:57;;;;;;;31.20;23.30;;;6.30;99.90;;;;;;5116154;28;20434;-46
2024/02/28 04:57:23;;;;;;;25.60;20.90;;;6.30;99.90;;;;;;5117244;28;20626;-45
2024/02/28 04:59:49;;;;;;;29.70;23.20;;;6.30;99.90;;;;;;5118739;28;20195;-49
2024/02/28 05:02:15;;;;;;;32.00;24.10;;;6.30;99.90;;;;;;5118437;28;20168;-45
2024/02/28 05:04:40;;;;;;;26.47;21.60;;;6.30;99.90;;;;;;5099213;28;20480;-45
2024/02/28 05:07:07;;;;;;;29.33;22.70;;;6.30;99.90;;;;;;5117716;28;20184;-46
2024/02/28 05:09:33;;;;;;;33.77;24.17;;;6.20;99.90;;;;;;5117036;28;20508;-48
2024/02/28 05:11:59;;;;;;;29.23;21.80;;;6.20;99.90;;;;;;5117265;28;20809;-47
2024/02/28 05:14:25;;;;;;;29.00;22.37;;;6.20;99.90;;;;;;5097224;28;20574;-46
2024/02/28 05:16:50;;;;;;;30.33;21.67;;;6.20;99.90;;;;;;5116115;28;20236;-44
2024/02/28 05:19:19;;;;;;;28.10;22.37;;;6.10;99.90;;;;;;5116559;28;20675;-47
2024/02/28 05:21:45;;;;;;;28.07;22.03;;;6.10;99.90;;;;;;5098767;28;20411;-44
2024/02/28 05:24:11;;;;;;;26.40;22.20;;;6.10;99.90;;;;;;5114380;28;21013;-46
2024/02/28 05:26:37;;;;;;;28.97;20.53;;;6.10;99.90;;;;;;5114215;28;20463;-44
2024/02/28 05:29:04;;;;;;;26.57;20.30;;;6.10;99.90;;;;;;5115769;28;20449;-46
2024/02/28 05:31:31;;;;;;;25.97;21.87;;;6.10;99.90;;;;;;5115010;28;20461;-46
2024/02/28 05:33:58;;;;;;;26.93;21.23;;;6.10;99.90;;;;;;5114665;28;20471;-46
2024/02/28 05:36:25;;;;;;;29.37;22.00;;;6.10;99.90;;;;;;5097401;28;20447;-46
2024/02/28 05:38:52;;;;;;;28.43;21.87;;;6.10;99.90;;;;;;5114479;28;20726;-45
2024/02/28 05:41:17;;;;;;;27.07;21.97;;;6.00;99.90;;;;;;5114568;28;20741;-45
2024/02/28 05:43:45;;;;;;;29.23;22.33;;;6.00;99.90;;;;;;5097223;28;20422;-46
2024/02/28 05:46:12;;;;;;;28.50;21.93;;;6.10;99.90;;;;;;5097711;28;20440;-45
2024/02/28 05:48:37;;;;;;;30.17;22.83;;;6.10;99.90;;;;;;5114418;28;20876;-44
2024/02/28 05:51:04;;;;;;;27.37;21.10;;;6.10;99.90;;;;;;5112636;28;20546;-45
2024/02/28 05:53:35;;;;;;;30.70;22.17;;;6.10;99.90;;;;;;5113330;28;20286;-48
2024/02/28 05:56:02;;;;;;;25.47;21.20;;;6.10;99.90;;;;;;5114750;28;20462;-44
2024/02/28 05:58:28;;;;;;;26.40;22.30;;;6.10;99.90;;;;;;5113508;28;20440;-45
2024/02/28 06:00:53;;;;;;;26.23;21.30;;;6.10;99.90;;;;;;5114135;28;20425;-45
2024/02/28 06:03:19;;;;;;;24.50;21.20;;;6.10;99.90;;;;;;5112133;28;20433;-45
2024/02/28 06:05:45;;;;;;;26.50;21.07;;;6.00;99.90;;;;;;5112618;28;20315;-50
2024/02/28 06:08:12;;;;;;;28.27;21.30;;;6.00;99.90;;;;;;5112859;28;20553;-46
2024/02/28 06:10:37;;;;;;;29.33;23.00;;;6.00;99.90;;;;;;5113280;28;20488;-45
2024/02/28 06:13:03;;;;;;;27.60;21.90;;;6.10;99.90;;;;;;5113858;28;20489;-45
2024/02/28 06:15:29;;;;;;;27.90;22.50;;;6.00;99.90;;;;;;5114304;28;20207;-45
2024/02/28 06:18:00;;;;;;;28.13;21.73;;;6.10;99.90;;;;;;5094226;28;20279;-45
2024/02/28 06:20:26;;;;;;;27.10;20.93;;;6.00;99.90;;;;;;5113989;28;20171;-46
2024/02/28 06:22:52;;;;;;;26.93;21.20;;;6.00;99.90;;;;;;5098270;28;20406;-44
2024/02/28 06:25:19;;;;;;;30.77;21.77;;;6.00;99.90;;;;;;5114931;28;20418;-48
2024/02/28 06:27:45;;;;;;;26.50;19.77;;;6.00;99.90;;;;;;5112993;28;20434;-46
2024/02/28 06:30:15;;;;;;;26.90;21.27;;;6.00;99.90;;;;;;5113511;28;20635;-48
2024/02/28 06:32:40;;;;;;;36.03;27.97;;;6.10;99.90;;;;;;5113566;28;20424;-48
2024/02/28 06:35:09;;;;;;;39.73;29.27;;;6.10;99.90;;;;;;5079609;28;20414;-47
2024/02/28 06:37:35;;;;;;;37.03;26.17;;;6.10;99.90;;;;;;5115566;28;20834;-44
2024/02/28 06:40:04;;;;;;;30.73;25.03;;;6.10;99.90;;;;;;5114817;28;20444;-43
2024/02/28 06:42:30;;;;;;;34.00;26.17;;;6.20;99.90;;;;;;5112176;28;20523;-44
2024/02/28 06:44:55;;;;;;;31.60;24.73;;;6.20;99.90;;;;;;5112069;28;20482;-46
2024/02/28 06:47:21;;;;;;;28.30;22.20;;;6.20;99.90;;;;;;5113522;28;20518;-44
2024/02/28 06:49:47;;;;;;;25.30;20.00;;;6.20;99.90;;;;;;5113609;28;20508;-44
2024/02/28 06:52:13;;;;;;;25.77;19.87;;;6.30;99.90;;;;;;5112638;28;20276;-45
2024/02/28 06:54:39;;;;;;;22.33;18.40;;;6.40;99.90;;;;;;5112758;28;20199;-45
2024/02/28 06:57:04;;;;;;;27.03;19.73;;;6.40;99.90;;;;;;5114691;28;20459;-46
2024/02/28 06:59:31;;;;;;;24.70;19.33;;;6.50;99.90;;;;;;5095530;28;20182;-49
2024/02/28 07:01:56;;;;;;;3.63;3.27;;;6.60;99.90;;;;;;5111332;28;20164;-47
2024/02/28 07:04:22;;;;;;;13.60;7.90;;;8.00;1.00;;;;;;5110779;28;20692;-48
2024/02/28 07:06:48;;;;;;;14.63;10.10;;;10.70;1.00;;;;;;5113790;28;20205;-48
2024/02/28 07:09:15;;;;;;;14.00;10.80;;;11.30;1.00;;;;;;5113432;28;20180;-49
2024/02/28 07:11:40;;;;;;;31.07;17.30;;;11.80;99.90;;;;;;5110151;28;20249;-49
2024/02/28 07:14:06;;;;;;;18.23;13.00;;;12.90;99.90;;;;;;5108144;28;20878;-50
2024/02/28 07:16:33;;;;;;;14.30;10.30;;;13.40;1.00;;;;;;5092785;28;20176;-52
2024/02/28 07:19:02;;;;;;;20.47;15.57;;;13.70;1.00;;;;;;5112266;28;20413;-46
2024/02/28 07:21:29;;;;;;;16.33;14.47;;;13.70;1.00;;;;;;5113794;28;20458;-47
2024/02/28 07:23:54;;;;;;;16.50;14.80;;;12.90;99.90;;;;;;5113719;28;20868;-47
2024/02/28 07:26:20;;;;;;;15.90;14.20;;;12.10;1.00;;;;;;5097155;28;20508;-44
2024/02/28 07:28:49;;;;;;;17.20;15.43;;;11.30;1.00;;;;;;5095205;28;20202;-46
2024/02/28 07:31:18;;;;;;;16.83;15.10;;;10.60;35.60;;;;;;5114667;28;20279;-45
2024/02/28 07:33:44;;;;;;;16.30;14.67;;;10.10;99.90;;;;;;5113601;28;20530;-49
2024/02/28 07:36:10;;;;;;;17.83;15.40;;;9.60;99.90;;;;;;5115611;28;20480;-48
2024/02/28 07:38:36;;;;;;;17.13;15.33;;;9.20;99.90;;;;;;5114822;28;21182;-45
2024/02/28 07:41:02;;;;;;;16.47;14.80;;;9.00;99.90;;;;;;5115045;28;20233;-46
2024/02/28 07:43:28;;;;;;;20.17;16.53;;;8.70;1.00;;;;;;5112274;28;20429;-48
2024/02/28 07:45:54;;;;;;;18.10;16.10;;;8.50;99.90;;;;;;5112279;28;20572;-47
2024/02/28 07:48:19;;;;;;;17.10;15.10;;;8.40;1.00;;;;;;5095540;28;20707;-46
2024/02/28 07:50:46;;;;;;;15.77;14.07;;;8.30;99.90;;;;;;5112949;28;20457;-47
2024/02/28 07:53:15;;;;;;;17.97;15.03;;;8.20;99.90;;;;;;5113380;28;20641;-45
2024/02/28 07:55:40;;;;;;;20.77;15.63;;;8.00;99.90;;;;;;5114257;28;20788;-46
2024/02/28 07:58:06;;;;;;;18.00;15.30;;;7.90;1.00;;;;;;5113235;28;20475;-48
2024/02/28 08:00:35;;;;;;;20.67;17.53;;;7.90;1.00;;;;;;5114454;28;20185;-45
2024/02/28 08:03:01;;;;;;;17.90;15.80;;;7.90;1.00;;;;;;5096458;28;20230;-46
2024/02/28 08:05:27;;;;;;;17.33;15.50;;;7.90;1.00;;;;;;5115284;28;20684;-45
2024/02/28 08:07:52;;;;;;;18.50;15.50;;;7.80;1.00;;;;;;5115185;28;20458;-48
2024/02/28 08:10:18;;;;;;;17.50;14.97;;;7.70;32.40;;;;;;5114807;28;20183;-45
2024/02/28 08:12:44;;;;;;;22.23;16.60;;;7.50;99.90;;;;;;5115528;28;20231;-44
2024/02/28 08:15:10;;;;;;;18.70;16.73;;;7.50;99.90;;;;;;5116774;28;20620;-44
2024/02/28 08:17:36;;;;;;;18.30;15.37;;;7.50;99.90;;;;;;5118881;28;20175;-48
2024/02/28 08:20:04;;;;;;;20.70;16.00;;;7.50;99.90;;;;;;5101210;28;20734;-45
2024/02/28 08:22:30;;;;;;;15.07;13.47;;;7.50;99.90;;;;;;5118927;28;20499;-48
2024/02/28 08:24:56;;;;;;;16.83;14.93;;;7.40;99.90;;;;;;5118612;28;20729;-45
2024/02/28 08:27:23;;;;;;;16.53;14.53;;;7.40;99.90;;;;;;5100557;28;20436;-47
2024/02/28 08:29:49;;;;;;;19.40;15.97;;;7.40;99.90;;;;;;5099461;28;20717;-46
2024/02/28 08:32:15;;;;;;;16.67;14.73;;;7.40;99.90;;;;;;5118305;28;20410;-45
2024/02/28 08:34:45;;;;;;;19.27;16.10;;;7.40;99.90;;;;;;5117728;28;20747;-47
2024/02/28 08:37:10;;;;;;;20.63;16.63;;;7.40;99.90;;;;;;5117700;28;20266;-47
2024/02/28 08:39:36;;;;;;;16.17;13.73;;;7.40;99.90;;;;;;5118002;28;20760;-44
2024/02/28 08:42:02;;;;;;;16.63;14.37;;;7.40;99.90;;;;;;5118319;28;20270;-47
2024/02/28 08:44:27;;;;;;;17.23;15.00;;;7.40;92.70;;;;;;5099807;28;20279;-46
2024/02/28 08:46:53;;;;;;;18.10;14.43;;;7.40;99.90;;;;;;5117569;28;20172;-46
2024/02/28 08:49:18;;;;;;;15.60;13.53;;;7.30;99.90;;;;;;5117990;28;20546;-45
2024/02/28 08:51:44;;;;;;;14.80;13.13;;;7.40;99.90;;;;;;5118512;28;20179;-45
2024/02/28 08:54:10;;;;;;;15.03;13.43;;;7.40;99.90;;;;;;5119280;28;20229;-46
2024/02/28 08:56:35;;;;;;;16.60;14.00;;;7.40;99.90;;;;;;5118274;28;20188;-48
2024/02/28 08:59:01;;;;;;;14.30;12.87;;;7.40;1.00;;;;;;5116599;28;20486;-50
2024/02/28 09:01:26;;;;;;;15.33;13.10;;;7.40;13.00;;;;;;5118358;28;20206;-46
2024/02/28 09:03:52;;;;;;;15.07;13.47;;;7.40;7.30;;;;;;5117228;28;20225;-47
2024/02/28 09:06:18;;;;;;;15.57;13.83;;;7.50;1.00;;;;;;5115608;28;20176;-44
2024/02/28 09:08:43;;;;;;;13.57;11.97;;;7.50;1.00;;;;;;5114523;28;20239;-45
2024/02/28 09:11:09;;;;;;;14.93;13.17;;;7.60;1.00;;;;;;5098401;28;20248;-45
2024/02/28 09:13:37;;;;;;;13.70;12.30;;;7.60;1.00;;;;;;5118436;28;20613;-46
2024/02/28 09:16:03;;;;;;;14.07;12.30;;;7.80;1.00;;;;;;5115875;28;20271;-46
2024/02/28 09:18:29;;;;;;;14.90;13.30;;;7.90;1.00;;;;;;5114705;28;20504;-45
2024/02/28 09:20:55;;;;;;;15.17;12.63;;;8.00;99.90;;;;;;5114511;28;20443;-49
2024/02/28 09:23:21;;;;;;;16.53;14.17;;;8.10;99.90;;;;;;5115259;28;20163;-47
2024/02/28 09:25:46;;;;;;;14.90;13.30;;;8.20;99.90;;;;;;5114966;28;20175;-46
2024/02/28 09:28:14;;;;;;;15.30;12.83;;;8.20;1.00;;;;;;5115605;28;20188;-47
2024/02/28 09:30:40;;;;;;;15.80;14.07;;;8.30;1.00;;;;;;5117736;28;20175;-45
2024/02/28 09:33:06;;;;;;;14.70;12.93;;;8.40;1.00;;;;;;5117638;28;20479;-48
2024/02/28 09:35:32;;;;;;;13.93;12.43;;;8.50;1.00;;;;;;5098765;28;20184;-45
2024/02/28 09:37:58;;;;;;;17.03;13.90;;;8.60;99.90;;;;;;5113334;28;20731;-45
2024/02/28 09:40:23;;;;;;;16.63;13.70;;;8.60;51.80;;;;;;5113362;28;21108;-45
2024/02/28 09:42:53;;;;;;;15.70;14.00;;;8.70;1.00;;;;;;5096338;28;20472;-48
2024/02/28 09:45:21;;;;;;;16.37;13.90;;;8.70;1.00;;;;;;5097593;28;20612;-47
2024/02/28 09:47:47;;;;;;;15.70;13.20;;;8.70;1.00;;;;;;5097371;28;20426;-47
2024/02/28 09:50:13;;;;;;;15.23;13.57;;;8.70;99.90;;;;;;5116485;28;20439;-46
2024/02/28 09:52:39;;;;;;;14.20;12.40;;;8.80;63.60;;;;;;5099051;28;20421;-48
2024/02/28 09:55:05;;;;;;;15.70;14.10;;;8.90;1.00;;;;;;5116856;28;20480;-47
2024/02/28 09:57:32;;;;;;;15.97;13.50;;;9.00;1.00;;;;;;5116024;28;20168;-46
2024/02/28 09:59:59;;;;;;;16.43;13.23;;;9.00;99.90;;;;;;5098422;28;20504;-46
2024/02/28 10:02:25;;;;;;;15.73;14.13;;;9.10;99.90;;;;;;5115324;28;20434;-44
2024/02/28 10:04:52;;;;;;;17.80;14.70;;;9.20;25.40;;;;;;5095791;28;20422;-46
2024/02/28 10:07:18;;;;;;;15.03;13.43;;;9.30;1.00;;;;;;5115486;28;20673;-48
2024/02/28 10:09:44;;;;;;;18.20;14.50;;;9.30;99.90;;;;;;5115746;28;20523;-47
2024/02/28 10:12:09;;;;;;;15.07;13.53;;;9.40;99.90;;;;;;5096788;28;20387;-45
2024/02/28 10:14:35;;;;;;;17.20;14.83;;;9.50;99.90;;;;;;5116492;28;20750;-46
2024/02/28 10:17:01;;;;;;;16.20;14.50;;;9.70;1.00;;;;;;5115461;28;20413;-45
2024/02/28 10:19:26;;;;;;;17.13;14.33;;;9.80;99.90;;;;;;5114616;28;20487;-47
2024/02/28 10:21:53;;;;;;;15.93;14.13;;;9.90;1.00;;;;;;5095901;28;20367;-47
2024/02/28 10:24:19;;;;;;;15.70;14.10;;;9.90;99.90;;;;;;5114429;28;20858;-45
2024/02/28 10:26:55;;;;;;;16.00;13.73;;;9.90;99.90;;;;;;5096324;28;20275;-44
2024/02/28 10:29:21;;;;;;;14.80;13.30;;;9.90;99.90;;;;;;5114143;28;20171;-46
2024/02/28 10:31:47;;;;;;;16.57;13.43;;;10.00;99.90;;;;;;5098847;28;20444;-47
2024/02/28 10:34:15;;;;;;;16.07;14.47;;;9.90;99.90;;;;;;5116554;28;20556;-45
2024/02/28 10:36:41;;;;;;;15.53;13.93;;;9.90;99.90;;;;;;5116626;28;20171;-44
2024/02/28 10:39:09;;;;;;;14.13;12.73;;;9.80;99.90;;;;;;5115862;28;20433;-45
2024/02/28 10:41:35;;;;;;;16.37;14.10;;;9.60;1.00;;;;;;5098292;28;20843;-46
2024/02/28 10:44:01;;;;;;;15.57;13.97;;;9.70;1.00;;;;;;5116732;28;20417;-46
2024/02/28 10:46:27;;;;;;;16.33;14.50;;;9.80;1.00;;;;;;5116653;28;20634;-44
2024/02/28 10:48:54;;;;;;;15.77;13.27;;;9.90;1.00;;;;;;5097934;28;20520;-45
2024/02/28 10:51:27;;;;;;;15.97;13.70;;;10.00;99.90;;;;;;5098674;28;20716;-46
2024/02/28 10:54:07;;;;;;;13.93;12.53;;;10.10;99.90;;;;;;5114192;28;20978;-44
2024/02/28 10:56:33;;;;;;;14.97;13.43;;;10.20;99.90;;;;;;5094246;28;20837;-47
2024/02/28 10:59:00;;;;;;;16.40;14.70;;;10.20;99.90;;;;;;5113294;28;20406;-45
2024/02/28 11:01:26;;;;;;;17.47;14.80;;;10.00;49.40;;;;;;5113281;28;20288;-48
2024/02/28 11:03:52;;;;;;;16.23;14.53;;;10.00;99.90;;;;;;5115132;28;20522;-46
2024/02/28 11:06:21;;;;;;;16.40;13.43;;;10.20;96.10;;;;;;5114768;28;20467;-47
2024/02/28 11:08:53;;;;;;;15.10;13.50;;;10.20;23.40;;;;;;5112573;28;20415;-45
2024/02/28 11:11:21;;;;;;;15.13;13.50;;;10.30;54.80;;;;;;5114642;28;20508;-46
2024/02/28 11:13:57;;;;;;;15.53;13.83;;;10.30;1.00;;;;;;5114674;28;20879;-45
2024/02/28 11:16:30;;;;;;;16.20;14.63;;;10.10;1.00;;;;;;5098063;28;20421;-45
2024/02/28 11:18:56;;;;;;;16.73;14.93;;;9.80;24.80;;;;;;5115039;28;20732;-45
2024/02/28 11:21:26;;;;;;;16.83;15.10;;;9.80;99.90;;;;;;5095862;28;20904;-45
2024/02/28 11:23:52;;;;;;;17.30;15.50;;;9.90;99.90;;;;;;5114849;28;20437;-44
2024/02/28 11:26:20;;;;;;;16.57;14.77;;;9.90;99.90;;;;;;5092857;28;20423;-46
2024/02/28 11:28:46;;;;;;;16.97;14.83;;;9.90;99.90;;;;;;5111987;28;20512;-45
2024/02/28 11:31:11;;;;;;;14.73;13.33;;;9.90;99.90;;;;;;5112592;28;20532;-44
2024/02/28 11:33:38;;;;;;;17.33;15.20;;;9.90;99.90;;;;;;5095147;28;20226;-46
2024/02/28 11:36:04;;;;;;;16.40;14.70;;;10.00;99.90;;;;;;5113031;28;20260;-45
2024/02/28 11:38:29;;;;;;;17.70;15.47;;;10.00;99.90;;;;;;5093785;28;20749;-44
2024/02/28 11:40:55;;;;;;;17.23;15.40;;;10.00;99.90;;;;;;5110808;28;20708;-46
2024/02/28 11:43:21;;;;;;;16.60;14.73;;;10.10;99.90;;;;;;5111545;28;20457;-45
2024/02/28 11:45:47;;;;;;;17.20;15.40;;;10.10;99.90;;;;;;5095182;28;20373;-47
2024/02/28 11:48:16;;;;;;;14.20;12.70;;;10.10;99.90;;;;;;5112851;28;20536;-46
2024/02/28 11:50:42;;;;;;;14.87;13.37;;;10.10;88.40;;;;;;5112639;28;20184;-46
2024/02/28 11:53:08;;;;;;;14.00;12.60;;;10.10;22.60;;;;;;5114349;28;20413;-45
2024/02/28 11:55:34;;;;;;;17.10;15.30;;;10.20;23.00;;;;;;5114492;28;20259;-46
2024/02/28 11:58:00;;;;;;;16.97;14.83;;;10.20;1.00;;;;;;5115077;28;20429;-44
2024/02/28 12:00:26;;;;;;;15.97;13.47;;;10.30;1.00;;;;;;5115960;28;20420;-45
2024/02/28 12:02:51;;;;;;;15.80;14.20;;;10.30;39.30;;;;;;5115797;28;20257;-49
2024/02/28 12:05:19;;;;;;;17.30;15.40;;;10.40;1.00;;;;;;5115130;28;20236;-48
2024/02/28 12:07:45;;;;;;;21.13;18.63;;;10.10;47.90;;;;;;5116630;28;20172;-46
2024/02/28 12:10:11;;;;;;;25.33;22.63;;;10.00;99.90;;;;;;5117021;28;20417;-44
2024/02/28 12:12:38;;;;;;;20.97;18.40;;;9.90;99.90;;;;;;5117195;28;20444;-46
2024/02/28 12:15:05;;;;;;;21.47;19.17;;;9.70;99.90;;;;;;5115181;28;20653;-45
2024/02/28 12:17:31;;;;;;;24.33;21.73;;;9.60;1.00;;;;;;5115242;28;20420;-45
2024/02/28 12:20:00;;;;;;;21.43;19.20;;;9.50;1.00;;;;;;5112841;28;20584;-45
2024/02/28 12:22:26;;;;;;;21.47;19.23;;;9.40;1.00;;;;;;5114123;28;20432;-46
2024/02/28 12:24:53;;;;;;;21.20;17.57;;;9.40;99.90;;;;;;5097969;28;20437;-45
2024/02/28 12:27:19;;;;;;;21.17;17.97;;;9.50;99.90;;;;;;5083319;28;20336;-49
2024/02/28 12:29:44;;;;;;;24.33;20.53;;;9.40;99.90;;;;;;5096158;28;20852;-46
2024/02/28 12:32:10;;;;;;;21.77;18.13;;;9.40;99.90;;;;;;5113511;28;20702;-44
2024/02/28 12:34:35;;;;;;;21.37;18.57;;;9.50;99.90;;;;;;5114621;28;20211;-48